createdAt,value
2022-11-28T00:01:41.985Z,957.35
2022-11-28T00:16:43.880Z,957.68
2022-11-28T00:31:45.880Z,957.91
2022-11-28T00:46:47.856Z,957.91
2022-11-28T01:01:49.904Z,957.96
2022-11-28T01:16:51.879Z,958.02
2022-11-28T01:31:53.874Z,958.14
2022-11-28T01:46:55.891Z,958.06
2022-11-28T02:01:57.912Z,958.12
2022-11-28T02:16:59.837Z,958.25
2022-11-28T02:32:01.787Z,958.18
2022-11-28T02:47:03.790Z,958.09
2022-11-28T03:02:05.793Z,958.16
2022-11-28T03:17:07.738Z,958.36
2022-11-28T03:32:09.727Z,958.41
2022-11-28T03:47:11.738Z,958.39
2022-11-28T04:02:13.732Z,958.45
2022-11-28T04:17:15.638Z,958.26
2022-11-28T04:32:17.523Z,958.2
2022-11-28T04:47:19.425Z,958.32
2022-11-28T05:02:21.392Z,958.52
2022-11-28T05:17:23.322Z,958.52
2022-11-28T05:32:25.278Z,958.44
2022-11-28T05:47:27.171Z,958.46
2022-11-28T06:02:29.286Z,958.36
2022-11-28T06:17:31.321Z,958.42
2022-11-28T06:32:33.238Z,958.43
2022-11-28T06:47:35.148Z,958.47
2022-11-28T07:02:37.291Z,958.48
2022-11-28T07:17:39.311Z,958.33
2022-11-28T07:32:41.297Z,958.17
2022-11-28T07:47:43.194Z,957.99
2022-11-28T08:02:45.150Z,957.9
2022-11-28T08:17:47.045Z,957.86
2022-11-28T08:32:48.912Z,957.91
2022-11-28T08:47:50.842Z,958
2022-11-28T09:02:52.792Z,957.9
2022-11-28T09:17:54.673Z,957.86
2022-11-28T09:32:56.537Z,957.93
2022-11-28T09:47:58.403Z,957.96
2022-11-28T10:03:00.279Z,957.93
2022-11-28T10:18:02.136Z,957.94
2022-11-28T10:33:04.130Z,957.91
2022-11-28T10:48:37.072Z,957.91
2022-11-28T11:03:40.729Z,957.75
2022-11-28T11:18:42.763Z,957.7
2022-11-28T11:33:44.723Z,957.7
2022-11-28T11:48:46.653Z,957.79
2022-11-28T12:03:48.662Z,957.86
2022-11-28T12:18:50.641Z,957.82
2022-11-28T12:33:52.545Z,957.7
2022-11-28T12:48:54.468Z,957.63
2022-11-28T13:03:56.399Z,957.66
2022-11-28T13:18:58.383Z,957.67
2022-11-28T13:34:00.292Z,957.68
2022-11-28T13:49:16.089Z,957.71
2022-11-28T14:04:22.009Z,957.75
2022-11-28T14:19:23.972Z,957.84
2022-11-28T14:34:25.886Z,957.82
2022-11-28T14:49:27.806Z,957.81
2022-11-28T15:04:29.679Z,957.76
2022-11-28T15:19:31.655Z,957.77
2022-11-28T15:34:33.620Z,957.82
2022-11-28T15:49:35.595Z,957.87
2022-11-28T16:04:37.540Z,957.84
2022-11-28T16:19:39.598Z,957.86
2022-11-28T16:34:41.925Z,957.79
2022-11-28T16:49:44.547Z,957.8
2022-11-28T17:04:46.709Z,957.81
2022-11-28T17:19:48.750Z,957.84
2022-11-28T17:34:50.690Z,957.88
2022-11-28T17:49:52.913Z,957.97
2022-11-28T18:04:54.858Z,958
2022-11-28T18:19:57.878Z,958.03
2022-11-28T18:35:00.113Z,958.04
2022-11-28T18:50:02.015Z,957.93
2022-11-28T19:05:03.973Z,957.85
2022-11-28T19:20:06.106Z,957.86
2022-11-28T19:35:08.025Z,957.76
2022-11-28T19:50:09.977Z,957.73
2022-11-28T20:05:11.867Z,957.7
2022-11-28T20:20:13.799Z,957.64
2022-11-28T20:35:15.797Z,957.57
2022-11-28T20:50:17.732Z,957.56
2022-11-28T21:05:19.680Z,957.57
2022-11-28T21:20:21.546Z,957.48
2022-11-28T21:35:23.495Z,957.59
2022-11-28T21:50:25.477Z,957.63
2022-11-28T22:05:27.385Z,957.66
2022-11-28T22:20:29.313Z,957.7
2022-11-28T22:35:31.262Z,957.78
2022-11-28T22:50:37.359Z,957.89
2022-11-28T23:05:46.537Z,958.12
2022-11-28T23:20:50.960Z,958.15
2022-11-28T23:35:52.972Z,958.28
2022-11-28T23:50:54.872Z,958.37
